Terminal Aerodrome Forecast
Issued by NWS Caribou, ME

Home | Current Version | Previous Version | Text Only | Print | Product List | Glossary On
Versions: 1 2 3 4 5 6 7 8 9 10 11 12 13 14 15 16 17 18
000
FTUS41 KCAR 021131
TAFBGR
TAF
KBGR 021131Z 0212/0312 14008KT P6SM -RA SCT025 OVC035
      TEMPO 0212/0214 5SM -RA BR SCT015 OVC025
     FM021400 11008KT 5SM -RA BR OVC015
     FM021800 07008KT 3SM -RA BR OVC008
     FM022100 07008KT 3SM -RA BR OVC005
     FM030300 36008KT 5SM -SHRA BR OVC008
     FM030600 36006KT 5SM BR OVC004=

USA.gov is the U.S. government's official web portal to all federal, state and local government web resources and services.